createdAt,value
2019-01-30T00:01:09.224Z,6.83
2019-01-30T00:03:38.064Z,8.70
2019-01-30T00:06:07.828Z,8.13
2019-01-30T00:08:36.357Z,14.00
2019-01-30T00:11:05.154Z,12.00
2019-01-30T00:13:34.565Z,9.80
2019-01-30T00:16:04.143Z,10.30
2019-01-30T00:18:32.978Z,9.70
2019-01-30T00:21:01.799Z,8.52
2019-01-30T00:23:30.636Z,7.30
2019-01-30T00:26:00.202Z,8.80
2019-01-30T00:28:29.021Z,7.97
2019-01-30T00:30:57.854Z,7.93
2019-01-30T00:33:26.708Z,7.72
2019-01-30T00:35:55.532Z,8.37
2019-01-30T00:38:24.354Z,7.30
2019-01-30T00:40:53.189Z,9.27
2019-01-30T00:43:22.766Z,6.50
2019-01-30T00:45:51.594Z,7.37
2019-01-30T00:48:20.417Z,8.07
2019-01-30T00:50:49.254Z,6.20
2019-01-30T00:53:18.824Z,7.77
2019-01-30T00:55:47.659Z,7.53
2019-01-30T00:58:17.006Z,6.87
2019-01-30T01:00:45.844Z,7.33
2019-01-30T01:03:15.397Z,6.60
2019-01-30T01:05:44.220Z,6.53
2019-01-30T01:08:13.780Z,7.17
2019-01-30T01:10:42.609Z,6.53
2019-01-30T01:13:14.514Z,6.27
2019-01-30T01:15:41.601Z,6.13
2019-01-30T01:18:10.452Z,7.37
2019-01-30T01:20:39.282Z,6.62
2019-01-30T01:23:08.126Z,7.87
2019-01-30T01:25:36.950Z,6.93
2019-01-30T01:28:05.800Z,7.10
2019-01-30T01:30:34.622Z,6.97
2019-01-30T01:33:03.481Z,6.70
2019-01-30T01:35:32.272Z,6.77
2019-01-30T01:38:01.104Z,8.27
2019-01-30T01:40:29.934Z,6.37
2019-01-30T01:42:58.768Z,6.60
2019-01-30T01:45:27.595Z,7.37
2019-01-30T01:47:57.212Z,7.20
2019-01-30T01:50:26.779Z,6.85
2019-01-30T01:52:55.692Z,7.40
2019-01-30T01:55:24.435Z,8.07
2019-01-30T01:57:53.264Z,5.93
2019-01-30T02:00:22.924Z,8.03
2019-01-30T02:02:51.706Z,7.47
2019-01-30T02:05:21.360Z,6.33
2019-01-30T02:07:50.189Z,6.53
2019-01-30T02:10:19.060Z,7.15
2019-01-30T02:12:47.862Z,6.27
2019-01-30T02:15:16.690Z,7.83
2019-01-30T02:17:45.525Z,7.10
2019-01-30T02:20:17.136Z,6.30
2019-01-30T02:22:45.959Z,7.10
2019-01-30T02:25:21.376Z,6.37
2019-01-30T02:27:50.211Z,6.77
2019-01-30T02:30:19.932Z,6.40
2019-01-30T02:32:48.760Z,6.87
2019-01-30T02:35:17.599Z,7.23
2019-01-30T02:37:46.424Z,7.63
2019-01-30T02:40:15.246Z,8.07
2019-01-30T02:42:44.080Z,7.17
2019-01-30T02:45:13.722Z,7.12
2019-01-30T02:47:42.561Z,7.20
2019-01-30T02:50:11.381Z,8.97
2019-01-30T02:52:40.198Z,7.00
2019-01-30T02:55:09.026Z,7.67
2019-01-30T02:57:37.856Z,6.20
2019-01-30T03:00:06.689Z,6.40
2019-01-30T03:02:35.528Z,6.80
2019-01-30T03:05:04.342Z,7.25
2019-01-30T03:07:33.164Z,6.60
2019-01-30T03:10:01.988Z,7.83
2019-01-30T03:12:30.818Z,7.23
2019-01-30T03:14:59.672Z,5.53
2019-01-30T03:17:28.496Z,7.30
2019-01-30T03:19:57.312Z,6.70
2019-01-30T03:22:26.131Z,7.90
2019-01-30T03:24:54.963Z,6.90
2019-01-30T03:27:23.812Z,8.13
2019-01-30T03:29:52.631Z,9.80
2019-01-30T03:32:21.479Z,10.10
2019-01-30T03:34:50.314Z,7.22
2019-01-30T03:37:19.151Z,6.50
2019-01-30T03:39:47.984Z,7.40
2019-01-30T03:42:16.800Z,6.20
2019-01-30T03:44:46.368Z,6.47
2019-01-30T03:47:15.188Z,9.87
2019-01-30T03:49:44.035Z,7.10
2019-01-30T03:52:12.859Z,7.00
2019-01-30T03:54:42.430Z,6.60
2019-01-30T03:57:11.264Z,6.57
2019-01-30T03:59:40.090Z,6.50
2019-01-30T04:02:09.370Z,6.73
2019-01-30T04:04:38.206Z,6.80
2019-01-30T04:07:07.028Z,6.17
2019-01-30T04:09:36.603Z,6.70
2019-01-30T04:12:05.418Z,7.10
2019-01-30T04:14:34.990Z,6.77
2019-01-30T04:17:03.838Z,7.27
2019-01-30T04:19:32.664Z,7.50
2019-01-30T04:22:01.487Z,7.63
2019-01-30T04:24:31.053Z,7.40
2019-01-30T04:26:59.870Z,7.07
2019-01-30T04:29:28.683Z,7.07
2019-01-30T04:31:58.250Z,7.53
2019-01-30T04:34:27.073Z,7.13
2019-01-30T04:36:56.650Z,7.23
2019-01-30T04:39:25.483Z,7.50
2019-01-30T04:41:54.323Z,7.47
2019-01-30T04:44:23.150Z,7.90
2019-01-30T04:46:51.973Z,7.27
2019-01-30T04:49:20.792Z,8.67
2019-01-30T04:51:49.640Z,10.33
2019-01-30T04:54:18.475Z,8.77
2019-01-30T04:56:47.293Z,7.90
2019-01-30T04:59:16.114Z,8.20
2019-01-30T05:01:49.590Z,9.07
2019-01-30T05:04:13.804Z,8.57
2019-01-30T05:06:42.672Z,7.73
2019-01-30T05:09:12.208Z,7.97
2019-01-30T05:11:41.043Z,8.77
2019-01-30T05:14:10.624Z,8.43
2019-01-30T05:16:39.437Z,8.25
2019-01-30T05:19:08.267Z,8.00
2019-01-30T05:21:37.086Z,8.03
2019-01-30T05:24:05.911Z,8.63
2019-01-30T05:26:34.739Z,9.40
2019-01-30T05:29:03.572Z,8.03
2019-01-30T05:31:33.142Z,8.40
2019-01-30T05:34:01.989Z,8.87
2019-01-30T05:36:30.805Z,8.73
2019-01-30T05:38:59.638Z,8.47
2019-01-30T05:41:28.454Z,8.40
2019-01-30T05:43:57.292Z,8.33
2019-01-30T05:46:26.116Z,8.80
2019-01-30T05:48:55.706Z,9.20
2019-01-30T05:51:24.515Z,10.60
2019-01-30T05:53:54.073Z,10.10
2019-01-30T05:56:22.908Z,9.77
2019-01-30T05:58:51.890Z,10.02
2019-01-30T06:01:21.502Z,14.70
2019-01-30T06:03:51.075Z,17.00
2019-01-30T06:06:19.918Z,12.37
2019-01-30T06:08:48.747Z,10.13
2019-01-30T06:11:17.586Z,9.63
2019-01-30T06:13:46.426Z,8.87
2019-01-30T06:16:15.255Z,9.40
2019-01-30T06:18:44.088Z,10.10
2019-01-30T06:21:12.922Z,10.65
2019-01-30T06:23:42.521Z,6.93
2019-01-30T06:26:12.100Z,8.83
2019-01-30T06:28:40.938Z,9.10
2019-01-30T06:31:10.520Z,8.67
2019-01-30T06:33:39.344Z,9.03
2019-01-30T06:36:08.177Z,8.97
2019-01-30T06:38:37.006Z,10.77
2019-01-30T06:41:06.573Z,9.70
2019-01-30T06:43:35.395Z,9.13
2019-01-30T06:46:04.999Z,9.50
2019-01-30T06:48:33.838Z,9.00
2019-01-30T06:51:02.695Z,9.60
2019-01-30T06:53:31.481Z,9.20
2019-01-30T06:56:00.330Z,9.10
2019-01-30T06:58:29.144Z,8.93
2019-01-30T07:00:57.993Z,10.07
2019-01-30T07:03:26.825Z,9.38
2019-01-30T07:05:56.387Z,10.83
2019-01-30T07:08:25.217Z,8.27
2019-01-30T07:10:54.077Z,9.97
2019-01-30T07:13:24.148Z,9.03
2019-01-30T07:15:51.689Z,8.63
2019-01-30T07:18:20.522Z,9.37
2019-01-30T07:20:49.338Z,8.90
2019-01-30T07:23:18.172Z,9.37
2019-01-30T07:25:47.025Z,9.43
2019-01-30T07:28:15.849Z,9.10
2019-01-30T07:30:44.679Z,9.45
2019-01-30T07:33:13.495Z,9.43
2019-01-30T07:35:43.076Z,11.00
2019-01-30T07:38:11.887Z,9.20
2019-01-30T07:40:40.712Z,8.63
2019-01-30T07:43:09.554Z,8.17
2019-01-30T07:45:38.381Z,7.50
2019-01-30T07:48:07.236Z,7.60
2019-01-30T07:50:36.064Z,8.33
2019-01-30T07:53:04.893Z,7.90
2019-01-30T07:55:33.731Z,8.07
2019-01-30T07:58:02.580Z,7.93
2019-01-30T08:00:31.395Z,8.63
2019-01-30T08:03:00.964Z,7.97
2019-01-30T08:05:29.801Z,8.37
2019-01-30T08:07:59.370Z,7.60
2019-01-30T08:10:28.189Z,8.27
2019-01-30T08:12:57.763Z,9.40
2019-01-30T08:15:26.575Z,8.67
2019-01-30T08:17:55.406Z,8.47
2019-01-30T08:20:24.246Z,8.50
2019-01-30T08:22:53.822Z,8.70
2019-01-30T08:25:23.055Z,8.80
2019-01-30T08:27:51.527Z,7.77
2019-01-30T08:30:22.636Z,9.40
2019-01-30T08:32:50.717Z,9.77
2019-01-30T08:35:19.544Z,9.07
2019-01-30T08:37:49.105Z,9.00
2019-01-30T08:40:17.987Z,9.03
2019-01-30T08:42:47.511Z,9.57
2019-01-30T08:45:17.281Z,8.95
2019-01-30T08:47:46.122Z,8.33
2019-01-30T08:50:14.942Z,7.63
2019-01-30T08:52:44.517Z,11.80
2019-01-30T08:55:13.343Z,8.20
2019-01-30T08:57:42.203Z,7.97
2019-01-30T09:00:11.083Z,9.00
2019-01-30T09:02:40.651Z,8.87
2019-01-30T09:05:09.477Z,7.77
2019-01-30T09:07:44.291Z,8.87
2019-01-30T09:12:46.397Z,8.30
2019-01-30T09:15:16.073Z,8.67
2019-01-30T09:17:44.893Z,7.87
2019-01-30T09:20:13.834Z,7.30
2019-01-30T09:22:42.565Z,7.57
2019-01-30T09:25:11.457Z,7.70
2019-01-30T09:27:40.275Z,6.97
2019-01-30T09:30:15.086Z,7.60
2019-01-30T09:32:44.710Z,7.37
2019-01-30T09:35:13.527Z,7.03
2019-01-30T09:37:42.376Z,7.93
2019-01-30T09:40:11.971Z,17.67
2019-01-30T09:42:40.797Z,9.07
2019-01-30T09:45:10.579Z,7.73
2019-01-30T09:47:39.320Z,6.60
2019-01-30T09:50:08.850Z,8.80
2019-01-30T09:52:37.674Z,7.40
2019-01-30T09:55:06.518Z,7.13
2019-01-30T09:57:35.333Z,6.50
2019-01-30T10:00:07.247Z,5.70
2019-01-30T10:02:36.062Z,5.78
2019-01-30T10:05:04.920Z,6.07
2019-01-30T10:07:33.757Z,6.13
2019-01-30T10:10:02.591Z,5.00
2019-01-30T10:12:31.421Z,6.13
2019-01-30T10:15:00.310Z,4.60
2019-01-30T10:17:31.055Z,2.80
2019-01-30T10:19:57.906Z,2.00
2019-01-30T10:22:26.729Z,1.83
2019-01-30T10:24:55.567Z,1.97
2019-01-30T10:27:25.140Z,1.50
2019-01-30T10:29:53.981Z,1.20
2019-01-30T10:32:22.807Z,1.60
2019-01-30T10:34:51.684Z,2.10
2019-01-30T10:37:21.229Z,1.33
2019-01-30T10:39:50.050Z,1.50
2019-01-30T10:42:19.622Z,2.40
2019-01-30T10:44:48.463Z,2.00
2019-01-30T10:47:18.027Z,2.47
2019-01-30T10:49:46.864Z,1.40
2019-01-30T10:52:15.687Z,1.30
2019-01-30T10:54:44.511Z,5.20
2019-01-30T10:57:13.344Z,3.70
2019-01-30T10:59:42.182Z,2.70
2019-01-30T11:02:10.994Z,1.53
2019-01-30T11:04:39.816Z,2.37
2019-01-30T11:07:08.645Z,1.97
2019-01-30T11:09:37.463Z,1.40
2019-01-30T11:12:06.306Z,2.00
2019-01-30T11:14:35.139Z,4.50
2019-01-30T11:17:04.721Z,2.50
2019-01-30T11:19:34.287Z,3.17
2019-01-30T11:22:03.113Z,9.13
2019-01-30T11:24:31.943Z,2.97
2019-01-30T11:27:00.779Z,12.73
2019-01-30T11:29:29.615Z,2.50
2019-01-30T11:31:58.430Z,10.17
2019-01-30T11:34:27.253Z,1.97
2019-01-30T11:36:56.114Z,0.70
2019-01-30T11:39:25.639Z,1.37
2019-01-30T11:41:54.465Z,0.90
2019-01-30T11:44:24.035Z,0.87
2019-01-30T11:46:52.877Z,3.90
2019-01-30T11:49:21.715Z,2.63
2019-01-30T11:51:50.531Z,1.60
2019-01-30T11:54:20.141Z,1.90
2019-01-30T11:56:49.583Z,2.07
2019-01-30T11:59:19.115Z,1.30
2019-01-30T12:01:47.963Z,1.07
2019-01-30T12:04:18.059Z,1.83
2019-01-30T12:06:46.381Z,1.33
2019-01-30T12:09:15.216Z,1.00
2019-01-30T12:11:44.063Z,0.90
2019-01-30T12:14:12.889Z,0.80
2019-01-30T12:16:42.453Z,0.70
2019-01-30T12:19:11.277Z,0.60
2019-01-30T12:21:40.114Z,0.77
2019-01-30T12:24:08.962Z,1.10
2019-01-30T12:26:38.553Z,3.80
2019-01-30T12:29:07.396Z,1.37
2019-01-30T12:31:36.239Z,2.87
2019-01-30T12:34:27.854Z,1.20
2019-01-30T12:36:46.973Z,1.97
2019-01-30T12:39:15.825Z,2.43
2019-01-30T12:41:44.677Z,4.87
2019-01-30T12:44:13.523Z,2.50
2019-01-30T12:46:42.403Z,2.07
2019-01-30T12:49:11.259Z,2.50
2019-01-30T12:51:40.100Z,1.43
2019-01-30T12:54:08.985Z,1.10
2019-01-30T12:56:37.774Z,1.70
2019-01-30T12:59:06.667Z,0.90
2019-01-30T13:01:35.463Z,2.10
2019-01-30T13:04:04.319Z,0.87
2019-01-30T13:06:33.199Z,1.10
2019-01-30T13:09:02.011Z,1.33
2019-01-30T13:11:30.855Z,0.73
2019-01-30T13:13:59.694Z,1.43
2019-01-30T13:16:28.567Z,1.83
2019-01-30T13:18:57.371Z,1.00
2019-01-30T13:21:26.963Z,1.93
2019-01-30T13:23:55.797Z,1.20
2019-01-30T13:26:24.672Z,1.00
2019-01-30T13:28:53.519Z,0.93
2019-01-30T13:31:22.365Z,1.10
2019-01-30T13:33:51.190Z,1.37
2019-01-30T13:36:20.031Z,1.40
2019-01-30T13:38:48.887Z,1.37
2019-01-30T13:41:23.412Z,2.10
2019-01-30T13:43:51.751Z,2.00
2019-01-30T13:46:20.589Z,2.30
2019-01-30T13:48:49.481Z,1.90
2019-01-30T13:51:18.286Z,1.20
2019-01-30T13:53:47.850Z,1.17
2019-01-30T13:56:16.699Z,1.23
2019-01-30T13:58:46.432Z,1.10
2019-01-30T14:01:17.722Z,1.63
2019-01-30T14:03:44.144Z,1.47
2019-01-30T14:06:12.964Z,1.70
2019-01-30T14:08:41.832Z,1.20
2019-01-30T14:11:10.657Z,1.30
2019-01-30T14:13:39.520Z,1.50
2019-01-30T14:16:08.344Z,1.97
2019-01-30T14:18:37.165Z,1.40
2019-01-30T14:21:06.013Z,1.40
2019-01-30T14:23:34.920Z,1.30
2019-01-30T14:26:04.475Z,1.53
2019-01-30T14:28:33.318Z,1.30
2019-01-30T14:31:02.195Z,1.90
2019-01-30T14:33:31.038Z,1.40
2019-01-30T14:35:59.852Z,1.33
2019-01-30T14:38:28.707Z,1.53
2019-01-30T14:40:57.527Z,1.37
2019-01-30T14:43:26.391Z,2.07
2019-01-30T14:45:55.297Z,1.40
2019-01-30T14:48:24.088Z,1.53
2019-01-30T14:50:52.947Z,1.40
2019-01-30T14:53:21.709Z,1.60
2019-01-30T14:55:50.606Z,2.03
2019-01-30T14:58:19.400Z,1.97
2019-01-30T15:00:48.271Z,1.40
2019-01-30T15:03:17.080Z,1.60
2019-01-30T15:05:45.942Z,1.67
2019-01-30T15:08:14.834Z,1.70
2019-01-30T15:10:43.665Z,1.80
2019-01-30T15:13:12.556Z,1.55
2019-01-30T15:15:44.067Z,1.60
2019-01-30T15:18:10.157Z,1.60
2019-01-30T15:20:39.005Z,1.83
2019-01-30T15:23:07.827Z,1.60
2019-01-30T15:25:36.659Z,1.70
2019-01-30T15:28:05.488Z,1.80
2019-01-30T15:30:35.362Z,1.70
2019-01-30T15:33:04.199Z,1.73
2019-01-30T15:35:34.029Z,1.97
2019-01-30T15:38:01.880Z,1.80
2019-01-30T15:40:30.720Z,1.90
2019-01-30T15:42:59.582Z,2.43
2019-01-30T15:45:28.417Z,1.87
2019-01-30T15:47:57.298Z,2.00
2019-01-30T15:50:28.045Z,2.00
2019-01-30T15:52:56.798Z,2.70
2019-01-30T15:55:25.626Z,2.10
2019-01-30T15:57:55.421Z,1.70
2019-01-30T16:00:25.766Z,2.30
2019-01-30T16:02:54.594Z,2.30
2019-01-30T16:05:23.467Z,1.90
2019-01-30T16:07:52.319Z,2.53
2019-01-30T16:10:21.113Z,3.20
2019-01-30T16:12:49.984Z,2.70
2019-01-30T16:18:02.603Z,3.90
2019-01-30T16:20:31.433Z,3.23
2019-01-30T16:23:00.256Z,2.87
2019-01-30T16:25:29.085Z,2.80
2019-01-30T16:27:58.652Z,2.93
2019-01-30T16:30:27.487Z,3.00
2019-01-30T16:32:57.075Z,3.50
2019-01-30T16:35:26.885Z,3.47
2019-01-30T16:37:55.711Z,3.70
2019-01-30T16:40:24.555Z,4.57
2019-01-30T16:42:54.432Z,4.40
2019-01-30T16:45:22.817Z,3.93
2019-01-30T16:47:51.651Z,4.33
2019-01-30T16:50:20.485Z,5.00
2019-01-30T16:52:49.308Z,5.40
2019-01-30T16:55:18.149Z,5.90
2019-01-30T16:57:46.971Z,5.00
2019-01-30T17:02:55.222Z,6.22
2019-01-30T17:05:24.170Z,6.73
2019-01-30T17:07:52.886Z,7.67
2019-01-30T17:10:21.719Z,8.97
2019-01-30T17:12:50.557Z,6.80
2019-01-30T17:15:19.396Z,6.97
2019-01-30T17:17:48.238Z,5.03
2019-01-30T17:20:18.865Z,4.77
2019-01-30T17:22:47.712Z,4.93
2019-01-30T17:25:16.549Z,5.85
2019-01-30T17:27:45.370Z,4.17
2019-01-30T17:30:14.952Z,5.27
2019-01-30T17:32:44.383Z,4.10
2019-01-30T17:35:13.968Z,4.00
2019-01-30T17:37:42.778Z,4.50
2019-01-30T17:40:15.318Z,2.90
2019-01-30T17:42:44.144Z,3.03
2019-01-30T17:45:12.977Z,3.30
2019-01-30T17:47:41.803Z,4.40
2019-01-30T17:50:13.199Z,3.50
2019-01-30T17:52:42.035Z,3.37
2019-01-30T17:55:11.453Z,4.73
2019-01-30T17:57:40.279Z,5.15
2019-01-30T18:00:11.667Z,4.47
2019-01-30T18:02:40.502Z,4.30
2019-01-30T18:05:10.104Z,3.90
2019-01-30T18:07:38.963Z,4.00
2019-01-30T18:10:07.787Z,4.50
2019-01-30T18:12:36.638Z,5.57
2019-01-30T18:15:05.485Z,3.20
2019-01-30T18:17:34.331Z,3.62
2019-01-30T18:20:03.909Z,5.13
2019-01-30T18:22:32.731Z,4.40
2019-01-30T18:25:02.307Z,3.47
2019-01-30T18:27:31.135Z,4.87
2019-01-30T18:30:00.007Z,4.20
2019-01-30T18:32:28.854Z,5.90
2019-01-30T18:34:57.701Z,4.60
2019-01-30T18:37:26.538Z,2.80
2019-01-30T18:39:55.377Z,5.13
2019-01-30T18:42:24.968Z,4.43
2019-01-30T18:44:53.809Z,3.47
2019-01-30T18:47:22.744Z,4.80
2019-01-30T18:49:52.214Z,3.63
2019-01-30T18:52:21.060Z,5.47
2019-01-30T18:54:49.918Z,6.20
2019-01-30T18:57:18.801Z,5.70
2019-01-30T18:59:47.631Z,6.35
2019-01-30T19:02:16.467Z,5.23
2019-01-30T19:04:45.354Z,5.90
2019-01-30T19:07:14.920Z,4.93
2019-01-30T19:09:44.382Z,5.75
2019-01-30T19:12:13.216Z,4.67
2019-01-30T19:14:42.039Z,5.03
2019-01-30T19:17:10.873Z,7.40
2019-01-30T19:19:39.718Z,7.00
2019-01-30T19:22:10.343Z,7.03
2019-01-30T19:24:37.430Z,6.20
2019-01-30T19:27:07.018Z,7.40
2019-01-30T19:29:35.913Z,6.37
2019-01-30T19:32:04.765Z,6.20
2019-01-30T19:34:33.610Z,4.70
2019-01-30T19:37:03.921Z,7.07
2019-01-30T19:39:32.014Z,5.93
2019-01-30T19:42:00.872Z,4.93
2019-01-30T19:44:29.702Z,6.63
2019-01-30T19:46:58.556Z,5.23
2019-01-30T19:49:27.386Z,7.40
2019-01-30T19:51:56.227Z,6.43
2019-01-30T19:54:25.064Z,7.53
2019-01-30T19:56:53.905Z,10.53
2019-01-30T19:59:22.720Z,7.62
2019-01-30T20:01:52.295Z,6.17
2019-01-30T20:04:21.131Z,8.03
2019-01-30T20:06:49.962Z,5.70
2019-01-30T20:09:18.788Z,6.93
2019-01-30T20:11:48.369Z,9.13
2019-01-30T20:14:17.206Z,7.17
2019-01-30T20:16:46.030Z,8.68
2019-01-30T20:19:14.871Z,8.43
2019-01-30T20:21:44.468Z,6.40
2019-01-30T20:24:14.082Z,6.83
2019-01-30T20:26:42.908Z,7.47
2019-01-30T20:29:11.756Z,6.33
2019-01-30T20:31:40.589Z,4.33
2019-01-30T20:34:37.582Z,7.13
2019-01-30T20:37:06.444Z,8.57
2019-01-30T20:39:35.278Z,6.23
2019-01-30T20:42:04.102Z,5.40
2019-01-30T20:44:32.940Z,5.97
2019-01-30T20:47:01.777Z,4.10
2019-01-30T20:49:30.605Z,5.87
2019-01-30T20:51:59.430Z,7.37
2019-01-30T20:54:28.254Z,6.07
2019-01-30T20:56:57.108Z,6.93
2019-01-30T20:59:25.956Z,6.07
2019-01-30T21:01:55.536Z,5.23
2019-01-30T21:04:24.374Z,4.67
2019-01-30T21:06:53.222Z,6.03
2019-01-30T21:09:22.114Z,6.13
2019-01-30T21:11:50.973Z,5.97
2019-01-30T21:14:19.810Z,7.70
2019-01-30T21:16:49.404Z,7.73
2019-01-30T21:19:18.259Z,6.67
2019-01-30T21:21:47.098Z,6.20
2019-01-30T21:24:15.918Z,5.15
2019-01-30T21:26:44.753Z,5.83
2019-01-30T21:29:14.182Z,5.63
2019-01-30T21:31:43.095Z,6.03
2019-01-30T21:34:12.646Z,6.40
2019-01-30T21:36:42.097Z,4.97
2019-01-30T21:39:10.934Z,5.40
2019-01-30T21:41:39.756Z,6.60
2019-01-30T21:44:09.367Z,6.43
2019-01-30T21:46:38.170Z,5.00
2019-01-30T21:49:07.010Z,4.10
2019-01-30T21:51:36.590Z,7.73
2019-01-30T21:54:05.418Z,5.37
2019-01-30T21:56:34.976Z,6.20
2019-01-30T21:59:03.816Z,6.00
2019-01-30T22:01:32.646Z,6.60
2019-01-30T22:04:01.475Z,10.77
2019-01-30T22:06:31.150Z,8.43
2019-01-30T22:08:59.908Z,10.50
2019-01-30T22:11:28.737Z,11.13
2019-01-30T22:13:57.576Z,11.73
2019-01-30T22:16:27.162Z,11.63
2019-01-30T22:18:55.988Z,10.07
2019-01-30T22:21:24.822Z,12.60
2019-01-30T22:24:04.966Z,11.73
2019-01-30T22:26:23.240Z,15.10
2019-01-30T22:28:52.084Z,12.30
2019-01-30T22:31:20.926Z,18.80
2019-01-30T22:33:50.516Z,12.47
2019-01-30T22:36:19.354Z,14.23
2019-01-30T22:38:48.188Z,11.77
2019-01-30T22:41:17.033Z,15.13
2019-01-30T22:43:45.863Z,8.50
2019-01-30T22:46:14.698Z,8.07
2019-01-30T22:48:43.536Z,8.43
2019-01-30T22:51:12.356Z,10.77
2019-01-30T22:53:41.943Z,7.90
2019-01-30T22:56:10.785Z,8.27
2019-01-30T22:58:39.599Z,7.15
2019-01-30T23:01:13.816Z,8.73
2019-01-30T23:03:43.448Z,9.27
2019-01-30T23:06:18.177Z,5.67
2019-01-30T23:11:48.068Z,7.57
2019-01-30T23:14:16.893Z,6.60
2019-01-30T23:16:51.574Z,8.83
2019-01-30T23:22:06.194Z,7.65
2019-01-30T23:24:41.816Z,6.63
2019-01-30T23:27:10.642Z,7.85
2019-01-30T23:29:49.756Z,5.43
2019-01-30T23:32:29.476Z,6.50
2019-01-30T23:35:03.118Z,6.93
2019-01-30T23:37:38.482Z,5.67
2019-01-30T23:42:58.994Z,6.78
2019-01-30T23:48:16.453Z,6.35
2019-01-30T23:50:49.192Z,5.97
2019-01-30T23:53:21.884Z,6.53
2019-01-30T23:58:41.490Z,7.73
